Time;durP1;ratioP1;P1;durP2;ratioP2;P2;SDS_P1;SDS_P2;PMS_P1;PMS_P2;Temp;Humidity;BMP_temperature;BMP_pressure;BME280_temperature;BME280_humidity;BME280_pressure;Samples;Min_cycle;Max_cycle;Signal;HPM_P1;HPM_P2
2024/03/20 00:00:58;;;;;;;91.20;43.80;;;;;;;;;;106622;1254;62070;-76
2024/03/20 00:03:44;;;;;;;94.40;44.90;;;;;;;;;;107865;1251;64441;-77
2024/03/20 00:06:11;;;;;;;87.40;43.20;;;;;;;;;;109651;1251;59985;-77
2024/03/20 00:08:37;;;;;;;86.10;38.50;;;;;;;;;;109637;1250;59704;-77
2024/03/20 00:11:03;;;;;;;90.20;41.00;;;;;;;;;;109645;1251;59621;-77
2024/03/20 00:13:29;;;;;;;83.20;39.60;;;;;;;;;;109676;1250;59548;-77
2024/03/20 00:15:56;;;;;;;80.70;38.80;;;;;;;;;;109667;1251;59766;-76
2024/03/20 00:18:22;;;;;;;88.80;38.50;;;;;;;;;;109640;1250;59644;-76
2024/03/20 00:20:48;;;;;;;90.60;41.90;;;;;;;;;;107239;1251;60232;-76
2024/03/20 00:23:14;;;;;;;80.60;35.70;;;;;;;;;;106668;1254;61949;-76
2024/03/20 00:25:41;;;;;;;86.90;41.40;;;;;;;;;;106649;1251;62070;-76
2024/03/20 00:28:07;;;;;;;78.60;37.50;;;;;;;;;;106581;1254;61946;-76
2024/03/20 00:30:33;;;;;;;80.70;37.40;;;;;;;;;;106566;1253;62159;-77
2024/03/20 00:33:00;;;;;;;87.90;39.90;;;;;;;;;;106659;1253;62229;-77
2024/03/20 00:35:26;;;;;;;87.90;37.20;;;;;;;;;;106608;1251;62099;-77
2024/03/20 00:37:52;;;;;;;81.20;38.50;;;;;;;;;;106597;1251;62150;-76
2024/03/20 00:40:18;;;;;;;82.90;38.80;;;;;;;;;;106683;1253;62067;-76
2024/03/20 00:42:45;;;;;;;91.10;40.50;;;;;;;;;;106581;1252;62047;-76
2024/03/20 00:45:11;;;;;;;89.30;45.40;;;;;;;;;;106568;1251;62164;-76
2024/03/20 00:47:37;;;;;;;93.60;44.00;;;;;;;;;;109695;1251;59996;-76
2024/03/20 00:50:04;;;;;;;96.80;44.20;;;;;;;;;;109674;1251;59684;-76
2024/03/20 00:52:30;;;;;;;92.30;44.50;;;;;;;;;;109670;1250;59966;-76
2024/03/20 00:54:56;;;;;;;91.80;41.30;;;;;;;;;;109554;1251;59746;-77
2024/03/20 00:57:24;;;;;;;88.60;40.70;;;;;;;;;;109618;1251;59565;-77
2024/03/20 00:59:51;;;;;;;89.50;44.60;;;;;;;;;;109665;1251;59868;-77
2024/03/20 01:02:17;;;;;;;89.40;42.40;;;;;;;;;;109688;1250;62688;-77
2024/03/20 01:04:44;;;;;;;84.80;40.40;;;;;;;;;;109653;1250;59800;-77
2024/03/20 01:07:10;;;;;;;83.90;37.10;;;;;;;;;;109639;1250;59724;-77
2024/03/20 01:09:37;;;;;;;87.20;38.90;;;;;;;;;;109662;1250;59851;-77
2024/03/20 01:12:03;;;;;;;78.40;37.20;;;;;;;;;;109695;1251;59638;-76
2024/03/20 01:14:29;;;;;;;86.70;40.80;;;;;;;;;;109658;1252;59694;-77
2024/03/20 01:16:56;;;;;;;86.20;38.50;;;;;;;;;;109659;1251;59809;-77
2024/03/20 01:19:22;;;;;;;80.20;40.50;;;;;;;;;;109655;1250;59634;-77
2024/03/20 01:21:48;;;;;;;80.60;38.70;;;;;;;;;;109647;1251;59731;-78
2024/03/20 01:24:14;;;;;;;83.40;40.00;;;;;;;;;;109575;1249;59923;-77
2024/03/20 01:26:41;;;;;;;84.00;40.60;;;;;;;;;;106552;1251;62152;-76
2024/03/20 01:29:07;;;;;;;85.20;40.20;;;;;;;;;;106667;1251;62336;-78
2024/03/20 01:31:33;;;;;;;81.20;39.90;;;;;;;;;;106617;1251;62034;-76
2024/03/20 01:33:59;;;;;;;82.30;39.00;;;;;;;;;;106550;1251;62122;-76
2024/03/20 01:36:25;;;;;;;84.00;36.00;;;;;;;;;;106616;1251;62624;-77
2024/03/20 01:38:52;;;;;;;73.10;36.90;;;;;;;;;;109677;1250;60068;-77
2024/03/20 01:41:18;;;;;;;78.70;36.60;;;;;;;;;;109685;1251;59610;-77
2024/03/20 01:43:54;;;;;;;78.40;36.30;;;;;;;;;;109638;1249;60205;-77
2024/03/20 01:46:30;;;;;;;83.20;35.90;;;;;;;;;;109623;1250;59981;-77
2024/03/20 01:48:56;;;;;;;74.90;36.30;;;;;;;;;;109664;1249;59689;-77
2024/03/20 01:51:22;;;;;;;83.20;36.20;;;;;;;;;;109646;1249;59665;-77
2024/03/20 01:53:49;;;;;;;80.70;39.10;;;;;;;;;;109590;1251;59705;-77
2024/03/20 01:56:15;;;;;;;77.30;35.30;;;;;;;;;;109595;1250;59610;-77
2024/03/20 01:58:41;;;;;;;81.30;36.60;;;;;;;;;;109674;1249;59615;-77
2024/03/20 02:01:08;;;;;;;80.80;39.80;;;;;;;;;;109633;1249;59808;-77
2024/03/20 02:03:34;;;;;;;72.50;36.20;;;;;;;;;;109663;1250;59662;-77
2024/03/20 02:06:01;;;;;;;77.00;34.20;;;;;;;;;;109626;1251;59784;-77
2024/03/20 02:08:27;;;;;;;85.10;39.00;;;;;;;;;;109610;1250;59743;-77
2024/03/20 02:10:53;;;;;;;86.00;40.80;;;;;;;;;;109641;1251;59664;-77
2024/03/20 02:13:20;;;;;;;82.60;39.80;;;;;;;;;;109635;1251;59657;-77
2024/03/20 02:15:46;;;;;;;85.10;38.00;;;;;;;;;;109647;1250;60033;-77
2024/03/20 02:18:13;;;;;;;88.00;39.50;;;;;;;;;;109635;1250;59710;-77
2024/03/20 02:20:39;;;;;;;88.10;40.20;;;;;;;;;;109631;1250;59771;-77
2024/03/20 02:23:05;;;;;;;83.60;38.30;;;;;;;;;;109629;1250;59848;-76
2024/03/20 02:25:31;;;;;;;85.20;39.40;;;;;;;;;;109617;1253;59741;-77
2024/03/20 02:27:58;;;;;;;84.40;38.50;;;;;;;;;;109645;1249;59745;-77
2024/03/20 02:30:24;;;;;;;78.50;38.00;;;;;;;;;;109658;1250;60063;-77
2024/03/20 02:32:50;;;;;;;66.40;33.70;;;;;;;;;;109643;1250;59756;-77
2024/03/20 02:35:16;;;;;;;76.60;33.60;;;;;;;;;;109606;1250;59872;-77
2024/03/20 02:37:43;;;;;;;64.50;32.90;;;;;;;;;;109657;1249;59712;-77
2024/03/20 02:40:09;;;;;;;66.10;33.40;;;;;;;;;;107552;1249;62338;-76
2024/03/20 02:42:35;;;;;;;70.20;34.60;;;;;;;;;;106614;1251;62137;-76
2024/03/20 02:45:01;;;;;;;66.20;32.80;;;;;;;;;;106623;1254;62243;-76
2024/03/20 02:47:28;;;;;;;66.80;31.30;;;;;;;;;;108033;1250;62100;-76
2024/03/20 02:49:56;;;;;;;80.20;36.80;;;;;;;;;;108918;1250;59709;-76
2024/03/20 02:52:22;;;;;;;63.60;34.50;;;;;;;;;;106611;1251;62029;-76
2024/03/20 02:54:48;;;;;;;66.20;32.10;;;;;;;;;;106634;1254;62048;-76
2024/03/20 02:57:15;;;;;;;77.10;34.50;;;;;;;;;;106645;1251;62071;-76
2024/03/20 02:59:41;;;;;;;73.90;35.10;;;;;;;;;;106525;1253;62080;-77
2024/03/20 03:02:08;;;;;;;71.40;33.60;;;;;;;;;;106612;1251;62237;-76
2024/03/20 03:04:34;;;;;;;63.20;33.90;;;;;;;;;;106612;1254;62590;-77
2024/03/20 03:07:00;;;;;;;79.80;35.20;;;;;;;;;;106542;1251;62090;-76
2024/03/20 03:09:26;;;;;;;75.40;36.40;;;;;;;;;;106604;1250;62598;-76
2024/03/20 03:11:53;;;;;;;83.80;37.20;;;;;;;;;;107209;1250;62042;-77
2024/03/20 03:14:19;;;;;;;80.30;36.60;;;;;;;;;;109649;1249;59688;-76
2024/03/20 03:16:45;;;;;;;72.80;35.20;;;;;;;;;;109659;1250;59822;-76
2024/03/20 03:19:12;;;;;;;70.10;35.50;;;;;;;;;;109016;1251;60108;-76
2024/03/20 03:21:38;;;;;;;69.30;32.50;;;;;;;;;;106952;1250;62159;-76
2024/03/20 03:24:05;;;;;;;59.50;30.90;;;;;;;;;;109669;1249;60077;-77
2024/03/20 03:26:31;;;;;;;64.80;29.40;;;;;;;;;;109633;1249;59656;-77
2024/03/20 03:28:58;;;;;;;67.30;29.50;;;;;;;;;;109624;1249;59736;-77
2024/03/20 03:31:24;;;;;;;73.30;33.30;;;;;;;;;;109642;1250;59777;-77
2024/03/20 03:33:51;;;;;;;68.30;32.00;;;;;;;;;;109632;1250;59730;-77
2024/03/20 03:36:17;;;;;;;73.10;34.40;;;;;;;;;;109631;1250;60009;-77
2024/03/20 03:38:43;;;;;;;67.30;31.70;;;;;;;;;;107943;1250;62154;-76
2024/03/20 03:41:10;;;;;;;75.50;34.80;;;;;;;;;;106583;1251;62126;-76
2024/03/20 03:43:39;;;;;;;68.20;32.30;;;;;;;;;;106545;1249;62424;-76
2024/03/20 03:46:07;;;;;;;75.40;35.20;;;;;;;;;;106548;1253;62024;-76
2024/03/20 03:48:33;;;;;;;63.50;30.40;;;;;;;;;;109368;1249;59663;-76
2024/03/20 03:51:00;;;;;;;64.70;32.00;;;;;;;;;;109662;1249;59762;-76
2024/03/20 03:53:26;;;;;;;65.00;29.90;;;;;;;;;;109360;1249;60684;-76
2024/03/20 03:55:53;;;;;;;60.80;31.10;;;;;;;;;;106553;1251;62140;-76
2024/03/20 03:58:19;;;;;;;59.30;27.90;;;;;;;;;;106553;1253;62188;-76
2024/03/20 04:00:46;;;;;;;58.00;29.70;;;;;;;;;;106623;1251;62505;-76
2024/03/20 04:03:12;;;;;;;62.80;29.20;;;;;;;;;;106523;1250;62144;-76
2024/03/20 04:05:38;;;;;;;61.50;29.90;;;;;;;;;;106569;1250;62249;-76
2024/03/20 04:08:04;;;;;;;56.70;28.50;;;;;;;;;;106612;1250;62078;-76
2024/03/20 04:10:30;;;;;;;63.10;30.60;;;;;;;;;;106553;1254;62151;-76
2024/03/20 04:12:57;;;;;;;65.10;30.40;;;;;;;;;;106558;1251;62060;-76
2024/03/20 04:15:23;;;;;;;62.80;31.80;;;;;;;;;;106609;1250;62224;-76
2024/03/20 04:17:49;;;;;;;65.30;28.80;;;;;;;;;;106578;1250;62146;-76
2024/03/20 04:20:15;;;;;;;61.30;30.70;;;;;;;;;;106562;1253;62544;-76
2024/03/20 04:22:42;;;;;;;79.20;36.40;;;;;;;;;;106551;1254;62176;-76
2024/03/20 04:25:08;;;;;;;74.90;33.50;;;;;;;;;;106549;1253;62059;-76
2024/03/20 04:27:37;;;;;;;72.70;35.00;;;;;;;;;;106629;1250;61999;-76
2024/03/20 04:30:06;;;;;;;59.50;30.00;;;;;;;;;;106565;1250;62297;-76
2024/03/20 04:32:35;;;;;;;71.70;34.60;;;;;;;;;;106583;1253;62099;-76
2024/03/20 04:35:02;;;;;;;69.20;29.90;;;;;;;;;;107701;1250;61982;-76
2024/03/20 04:37:28;;;;;;;59.80;31.00;;;;;;;;;;108910;1249;59894;-76
2024/03/20 04:39:54;;;;;;;61.90;31.20;;;;;;;;;;106563;1250;62033;-76
2024/03/20 04:42:20;;;;;;;63.60;30.70;;;;;;;;;;106568;1249;62142;-76
2024/03/20 04:44:46;;;;;;;72.40;35.70;;;;;;;;;;106551;1250;62664;-76
2024/03/20 04:47:13;;;;;;;72.30;34.10;;;;;;;;;;106621;1250;62172;-76
2024/03/20 04:49:39;;;;;;;69.30;35.70;;;;;;;;;;106538;1251;62126;-76
2024/03/20 04:52:06;;;;;;;66.20;34.40;;;;;;;;;;106537;1254;62128;-76
2024/03/20 04:54:32;;;;;;;69.50;30.80;;;;;;;;;;106517;1253;62171;-76
2024/03/20 04:56:58;;;;;;;60.60;28.00;;;;;;;;;;107308;1249;62160;-77
2024/03/20 04:59:25;;;;;;;58.50;33.20;;;;;;;;;;109632;1249;59826;-77
2024/03/20 05:01:51;;;;;;;65.80;33.10;;;;;;;;;;109647;1250;60050;-76
2024/03/20 05:04:17;;;;;;;70.40;34.60;;;;;;;;;;109644;1249;59740;-77
2024/03/20 05:06:44;;;;;;;60.20;32.20;;;;;;;;;;109633;1249;59647;-76
2024/03/20 05:09:10;;;;;;;67.30;34.60;;;;;;;;;;109660;1249;59749;-76
2024/03/20 05:11:36;;;;;;;71.50;36.00;;;;;;;;;;106921;1249;62066;-76
2024/03/20 05:14:02;;;;;;;73.80;33.40;;;;;;;;;;106614;1250;62029;-76
2024/03/20 05:16:29;;;;;;;59.50;32.10;;;;;;;;;;106520;1253;62047;-76
2024/03/20 05:18:55;;;;;;;67.10;33.30;;;;;;;;;;106584;1254;62172;-76
2024/03/20 05:21:21;;;;;;;66.30;33.40;;;;;;;;;;106581;1250;62136;-76
2024/03/20 05:23:47;;;;;;;71.90;35.10;;;;;;;;;;106622;1251;62028;-75
2024/03/20 05:26:14;;;;;;;75.50;34.50;;;;;;;;;;106571;1251;62140;-76
2024/03/20 05:28:40;;;;;;;66.40;33.50;;;;;;;;;;106606;1250;62093;-76
2024/03/20 05:31:06;;;;;;;75.10;30.80;;;;;;;;;;106590;1254;62068;-76
2024/03/20 05:33:33;;;;;;;62.50;28.50;;;;;;;;;;109371;1250;59696;-76
2024/03/20 05:35:59;;;;;;;53.00;26.00;;;;;;;;;;109672;1249;59676;-77
2024/03/20 05:38:25;;;;;;;58.30;31.20;;;;;;;;;;109658;1249;60023;-77
2024/03/20 05:40:51;;;;;;;71.80;34.50;;;;;;;;;;107300;1250;62126;-76
2024/03/20 05:43:18;;;;;;;60.50;31.60;;;;;;;;;;106545;1250;62173;-76
2024/03/20 05:45:44;;;;;;;74.60;33.70;;;;;;;;;;106599;1254;62177;-76
2024/03/20 05:48:10;;;;;;;58.70;29.30;;;;;;;;;;107057;1250;62140;-76
2024/03/20 05:50:36;;;;;;;64.70;31.90;;;;;;;;;;106687;1249;62055;-76
2024/03/20 05:53:03;;;;;;;68.20;30.10;;;;;;;;;;106719;1250;62012;-77
2024/03/20 05:55:29;;;;;;;60.00;31.20;;;;;;;;;;106591;1251;62143;-77
2024/03/20 05:57:55;;;;;;;61.60;33.40;;;;;;;;;;106726;1250;63202;-78
2024/03/20 06:00:25;;;;;;;74.60;32.40;;;;;;;;;;106586;1253;62704;-78
2024/03/20 06:02:51;;;;;;;65.80;31.00;;;;;;;;;;106673;1251;62060;-77
2024/03/20 06:05:17;;;;;;;62.10;32.10;;;;;;;;;;106678;1253;62770;-78
2024/03/20 06:07:44;;;;;;;64.70;33.00;;;;;;;;;;106635;1251;62412;-77
2024/03/20 06:10:10;;;;;;;65.60;30.70;;;;;;;;;;106402;1250;349718;-77
2024/03/20 06:12:37;;;;;;;60.60;32.50;;;;;;;;;;106632;1254;62050;-77
2024/03/20 06:15:03;;;;;;;63.40;31.70;;;;;;;;;;106667;1251;62546;-77
2024/03/20 06:17:29;;;;;;;54.30;32.10;;;;;;;;;;106605;1253;62099;-78
2024/03/20 06:19:56;;;;;;;64.00;31.80;;;;;;;;;;106595;1254;62140;-77
2024/03/20 06:22:25;;;;;;;61.40;31.70;;;;;;;;;;106671;1250;62470;-77
2024/03/20 06:24:52;;;;;;;57.40;29.00;;;;;;;;;;106610;1250;62689;-77
2024/03/20 06:27:18;;;;;;;56.70;27.90;;;;;;;;;;106658;1251;62074;-78
2024/03/20 06:29:46;;;;;;;70.00;30.80;;;;;;;;;;106567;1250;62032;-78
2024/03/20 06:32:12;;;;;;;53.20;28.10;;;;;;;;;;107570;1251;62039;-78
2024/03/20 06:34:39;;;;;;;62.00;32.20;;;;;;;;;;109578;1249;59814;-78
2024/03/20 06:37:08;;;;;;;56.50;28.80;;;;;;;;;;109549;1253;59587;-78
2024/03/20 06:39:34;;;;;;;73.20;34.60;;;;;;;;;;109610;1249;59794;-78
2024/03/20 06:42:00;;;;;;;69.50;30.00;;;;;;;;;;109558;1249;60356;-78
2024/03/20 06:44:27;;;;;;;49.90;25.60;;;;;;;;;;109600;1249;60019;-78
2024/03/20 06:46:54;;;;;;;61.90;29.80;;;;;;;;;;109754;1249;59720;-78
2024/03/20 06:49:25;;;;;;;55.20;30.30;;;;;;;;;;109673;1250;59917;-78
2024/03/20 06:51:53;;;;;;;47.80;20.70;;;;;;;;;;109536;1251;59932;-78
2024/03/20 06:54:20;;;;;;;63.60;33.60;;;;;;;;;;109578;1249;59912;-78
2024/03/20 06:56:48;;;;;;;60.80;26.70;;;;;;;;;;109556;1249;59706;-79
2024/03/20 06:59:17;;;;;;;50.50;26.30;;;;;;;;;;109630;1249;59894;-78
2024/03/20 07:01:44;;;;;;;53.50;28.00;;;;;;;;;;109723;1248;63321;-78
2024/03/20 07:04:10;;;;;;;58.30;27.00;;;;;;;;;;109580;1249;59850;-78
2024/03/20 07:06:37;;;;;;;57.80;29.30;;;;;;;;;;109661;1249;61196;-79
2024/03/20 07:09:03;;;;;;;56.90;28.90;;;;;;;;;;109621;1249;59999;-77
2024/03/20 07:11:29;;;;;;;50.80;24.80;;;;;;;;;;109588;1250;59674;-78
2024/03/20 07:13:55;;;;;;;47.30;24.00;;;;;;;;;;109631;1248;59736;-76
2024/03/20 07:16:22;;;;;;;47.70;26.30;;;;;;;;;;109604;1249;59877;-76
2024/03/20 07:18:48;;;;;;;49.50;26.80;;;;;;;;;;109536;1249;60066;-76
2024/03/20 07:21:14;;;;;;;42.20;27.10;;;;;;;;;;109529;1253;59907;-76
2024/03/20 07:23:41;;;;;;;40.60;23.50;;;;;;;;;;109617;1249;59728;-77
2024/03/20 07:26:07;;;;;;;45.50;24.00;;;;;;;;;;109589;1253;59931;-76
2024/03/20 07:28:34;;;;;;;47.80;25.00;;;;;;;;;;109520;1251;59730;-77
2024/03/20 07:31:00;;;;;;;62.90;35.80;;;;;;;;;;108827;1249;62104;-76
2024/03/20 07:33:26;;;;;;;52.40;27.30;;;;;;;;;;106734;1250;62147;-76
2024/03/20 07:35:53;;;;;;;61.70;34.30;;;;;;;;;;106776;1250;62573;-81
2024/03/20 07:38:20;;;;;;;136.10;76.80;;;;;;;;;;107075;1250;62631;-79
2024/03/20 07:40:53;;;;;;;63.90;37.70;;;;;;;;;;106809;1254;62110;-77
2024/03/20 07:43:20;;;;;;;72.60;33.60;;;;;;;;;;106793;1250;62408;-77
2024/03/20 07:45:46;;;;;;;117.00;69.50;;;;;;;;;;106735;1250;62070;-78
2024/03/20 07:48:15;;;;;;;43.50;29.50;;;;;;;;;;106950;1250;62419;-78
2024/03/20 07:50:41;;;;;;;34.00;23.30;;;;;;;;;;106802;1250;62118;-77
2024/03/20 07:53:07;;;;;;;38.90;22.90;;;;;;;;;;106612;1251;62144;-78
2024/03/20 07:55:34;;;;;;;34.10;22.50;;;;;;;;;;106544;1251;62077;-77
2024/03/20 07:58:00;;;;;;;31.80;22.30;;;;;;;;;;106710;1253;62146;-77
2024/03/20 08:00:29;;;;;;;31.80;22.20;;;;;;;;;;106652;1250;62137;-76
2024/03/20 08:02:56;;;;;;;40.80;28.90;;;;;;;;;;106596;1253;62660;-78
2024/03/20 08:05:25;;;;;;;37.40;23.40;;;;;;;;;;106649;1250;61934;-76
2024/03/20 08:07:52;;;;;;;40.50;32.30;;;;;;;;;;106826;1251;62011;-78
2024/03/20 08:10:18;;;;;;;37.20;27.80;;;;;;;;;;106628;1253;62131;-77
2024/03/20 08:12:45;;;;;;;27.80;21.00;;;;;;;;;;106647;1254;62073;-77
2024/03/20 08:15:11;;;;;;;26.00;16.70;;;;;;;;;;106655;1253;62008;-77
2024/03/20 08:17:37;;;;;;;24.70;16.60;;;;;;;;;;106593;1254;62082;-77
2024/03/20 08:20:04;;;;;;;24.90;13.90;;;;;;;;;;106739;1248;63287;-78
2024/03/20 08:22:30;;;;;;;19.80;12.90;;;;;;;;;;106695;1253;62149;-79
2024/03/20 08:24:57;;;;;;;20.40;14.40;;;;;;;;;;106704;1250;62093;-77
2024/03/20 08:27:26;;;;;;;31.70;18.70;;;;;;;;;;106710;1250;60249;-76
2024/03/20 08:29:54;;;;;;;39.00;25.40;;;;;;;;;;107249;1254;61956;-78
2024/03/20 08:32:21;;;;;;;33.60;24.40;;;;;;;;;;106586;1253;62058;-79
2024/03/20 08:34:47;;;;;;;21.40;12.10;;;;;;;;;;106745;1254;62090;-78
2024/03/20 08:37:13;;;;;;;18.60;11.00;;;;;;;;;;106640;1251;62026;-76
2024/03/20 08:39:40;;;;;;;17.90;12.10;;;;;;;;;;106536;1254;62134;-76
2024/03/20 08:42:06;;;;;;;17.20;12.10;;;;;;;;;;106600;1250;62063;-76
2024/03/20 08:44:33;;;;;;;22.70;16.80;;;;;;;;;;106598;1253;62142;-76
2024/03/20 08:46:59;;;;;;;12.10;8.40;;;;;;;;;;106658;1248;62143;-78
2024/03/20 08:49:26;;;;;;;93.90;67.20;;;;;;;;;;106685;1253;62066;-77
2024/03/20 08:51:53;;;;;;;18.50;13.20;;;;;;;;;;106524;1254;62166;-78
2024/03/20 08:54:20;;;;;;;13.40;10.30;;;;;;;;;;106946;1251;62155;-78
2024/03/20 08:56:47;;;;;;;10.90;8.00;;;;;;;;;;106818;1248;62106;-78
2024/03/20 08:59:13;;;;;;;14.50;10.20;;;;;;;;;;106758;1250;62517;-79
2024/03/20 09:01:40;;;;;;;16.20;10.50;;;;;;;;;;106581;1250;62056;-78
2024/03/20 09:04:06;;;;;;;15.70;9.10;;;;;;;;;;106558;1250;62138;-78
2024/03/20 09:06:32;;;;;;;14.60;9.90;;;;;;;;;;106632;1253;62460;-76
2024/03/20 09:08:58;;;;;;;13.70;10.30;;;;;;;;;;106761;1254;62109;-77
2024/03/20 09:11:25;;;;;;;13.00;9.70;;;;;;;;;;106599;1254;62063;-76
2024/03/20 09:13:51;;;;;;;15.30;10.20;;;;;;;;;;106637;1250;61904;-77
2024/03/20 09:16:17;;;;;;;22.30;10.70;;;;;;;;;;106787;1250;62117;-76
2024/03/20 09:18:44;;;;;;;38.20;13.80;;;;;;;;;;106651;1253;62163;-76
2024/03/20 09:21:10;;;;;;;35.80;25.30;;;;;;;;;;106567;1251;62035;-76
2024/03/20 09:23:37;;;;;;;55.90;14.20;;;;;;;;;;106620;1250;62079;-78
2024/03/20 09:26:04;;;;;;;22.50;10.00;;;;;;;;;;106601;1250;62150;-77
2024/03/20 09:28:30;;;;;;;19.00;12.90;;;;;;;;;;106707;1250;62154;-76
2024/03/20 09:30:56;;;;;;;16.40;9.10;;;;;;;;;;106674;1250;62139;-76
2024/03/20 09:33:23;;;;;;;16.70;11.90;;;;;;;;;;106567;1248;62106;-76
2024/03/20 09:35:49;;;;;;;14.40;9.50;;;;;;;;;;106708;1253;62071;-76
2024/03/20 09:38:15;;;;;;;14.30;9.40;;;;;;;;;;106858;1249;62277;-76
2024/03/20 09:40:41;;;;;;;16.20;11.50;;;;;;;;;;106564;1251;62476;-77
2024/03/20 09:43:08;;;;;;;13.50;7.60;;;;;;;;;;106582;1254;62811;-76
2024/03/20 09:45:34;;;;;;;14.10;8.40;;;;;;;;;;106540;1254;62131;-77
2024/03/20 09:48:01;;;;;;;28.60;8.90;;;;;;;;;;106694;1257;62137;-78
2024/03/20 09:50:28;;;;;;;14.10;8.90;;;;;;;;;;106677;1250;62057;-79
2024/03/20 09:52:54;;;;;;;11.60;7.20;;;;;;;;;;106662;1251;62197;-76
2024/03/20 09:55:20;;;;;;;11.60;6.80;;;;;;;;;;106535;1254;62063;-75
2024/03/20 09:57:47;;;;;;;11.30;7.60;;;;;;;;;;106695;1250;62064;-75
2024/03/20 10:00:14;;;;;;;13.50;7.10;;;;;;;;;;106574;1253;62071;-76
2024/03/20 10:02:42;;;;;;;13.70;6.90;;;;;;;;;;106664;1254;62551;-79
2024/03/20 10:05:12;;;;;;;12.30;7.70;;;;;;;;;;106624;1255;62045;-78
2024/03/20 10:07:40;;;;;;;12.60;7.30;;;;;;;;;;106759;1254;62061;-76
2024/03/20 10:10:08;;;;;;;10.20;6.80;;;;;;;;;;106601;1251;62694;-79
2024/03/20 10:12:35;;;;;;;16.70;8.00;;;;;;;;;;106887;1252;62026;-75
2024/03/20 10:15:07;;;;;;;14.30;7.20;;;;;;;;;;106627;1254;61937;-78
2024/03/20 10:17:34;;;;;;;11.00;7.30;;;;;;;;;;106763;1250;62771;-75
2024/03/20 10:20:02;;;;;;;13.30;8.10;;;;;;;;;;106681;1251;62179;-76
2024/03/20 10:22:28;;;;;;;12.40;8.00;;;;;;;;;;106603;1254;62079;-79
2024/03/20 10:24:55;;;;;;;11.50;8.70;;;;;;;;;;106628;1252;62067;-78
2024/03/20 10:27:22;;;;;;;12.40;7.40;;;;;;;;;;106666;1254;60817;-78
2024/03/20 10:29:48;;;;;;;16.70;7.00;;;;;;;;;;106780;1253;63877;-78
2024/03/20 10:32:15;;;;;;;9.00;5.70;;;;;;;;;;106711;1250;62122;-79
2024/03/20 10:34:41;;;;;;;9.00;5.40;;;;;;;;;;106717;1249;62144;-78
2024/03/20 10:37:07;;;;;;;32.80;6.80;;;;;;;;;;106606;1250;62146;-79
2024/03/20 10:39:34;;;;;;;9.80;6.50;;;;;;;;;;106547;1256;62182;-78
2024/03/20 10:42:01;;;;;;;13.50;7.90;;;;;;;;;;106719;1249;62588;-78
2024/03/20 10:44:27;;;;;;;14.60;7.80;;;;;;;;;;106698;1251;61962;-79
2024/03/20 10:46:54;;;;;;;9.80;6.60;;;;;;;;;;106592;1250;62470;-78
2024/03/20 10:49:21;;;;;;;26.50;7.90;;;;;;;;;;106627;1255;62142;-78
2024/03/20 10:51:50;;;;;;;13.20;8.00;;;;;;;;;;106665;1251;62038;-78
2024/03/20 10:54:17;;;;;;;11.30;6.50;;;;;;;;;;106686;1249;62735;-79
2024/03/20 10:56:43;;;;;;;9.90;6.30;;;;;;;;;;106718;1252;62153;-78
2024/03/20 10:59:13;;;;;;;9.40;6.00;;;;;;;;;;106631;1250;62109;-78
2024/03/20 11:01:44;;;;;;;14.10;6.70;;;;;;;;;;106692;1250;61929;-78
2024/03/20 11:04:10;;;;;;;14.20;7.50;;;;;;;;;;106740;1248;62718;-78
2024/03/20 11:06:39;;;;;;;11.20;6.50;;;;;;;;;;106857;1254;60245;-76
2024/03/20 11:09:06;;;;;;;;;;;;;;;;;;106921;1255;62023;-78
2024/03/20 11:11:32;;;;;;;8.00;6.20;;;;;;;;;;106734;1254;62120;-76
2024/03/20 11:13:59;;;;;;;10.10;5.70;;;;;;;;;;106769;1250;62035;-79
2024/03/20 11:16:25;;;;;;;11.30;6.20;;;;;;;;;;109610;1250;60197;-77
2024/03/20 11:18:54;;;;;;;11.10;6.10;;;;;;;;;;109619;1250;59918;-77
2024/03/20 11:21:21;;;;;;;7.70;5.20;;;;;;;;;;109555;1250;59795;-77
2024/03/20 11:23:47;;;;;;;10.90;5.40;;;;;;;;;;109562;1250;59783;-78
2024/03/20 11:26:14;;;;;;;13.10;6.80;;;;;;;;;;109543;1251;59891;-77
2024/03/20 11:28:45;;;;;;;9.50;7.00;;;;;;;;;;109543;1254;59844;-77
2024/03/20 11:31:11;;;;;;;10.60;6.10;;;;;;;;;;109583;1254;62058;-77
2024/03/20 11:33:42;;;;;;;12.70;7.10;;;;;;;;;;109592;1250;59875;-77
2024/03/20 11:36:18;;;;;;;10.60;6.90;;;;;;;;;;109484;1250;60612;-78
2024/03/20 11:38:47;;;;;;;15.60;6.90;;;;;;;;;;109577;1250;60015;-78
2024/03/20 11:41:17;;;;;;;14.50;7.00;;;;;;;;;;109616;1250;59891;-77
2024/03/20 11:43:43;;;;;;;13.50;7.70;;;;;;;;;;109606;1250;62702;-77
2024/03/20 11:46:11;;;;;;;12.90;8.20;;;;;;;;;;109625;1249;59699;-77
2024/03/20 11:48:38;;;;;;;16.70;7.90;;;;;;;;;;109534;1250;60728;-77
2024/03/20 11:51:09;;;;;;;16.60;9.60;;;;;;;;;;109587;1248;59941;-78
2024/03/20 11:53:35;;;;;;;21.20;8.80;;;;;;;;;;109577;1250;60598;-79
2024/03/20 11:56:01;;;;;;;18.00;9.60;;;;;;;;;;109582;1250;59688;-79
2024/03/20 11:58:28;;;;;;;18.50;10.40;;;;;;;;;;109487;1250;60014;-77
2024/03/20 12:00:54;;;;;;;19.20;10.90;;;;;;;;;;109654;1249;59825;-78
2024/03/20 12:03:21;;;;;;;16.60;11.00;;;;;;;;;;109626;1250;60047;-78
2024/03/20 12:05:48;;;;;;;20.20;11.80;;;;;;;;;;109679;1248;59704;-77
2024/03/20 12:08:14;;;;;;;22.40;13.40;;;;;;;;;;109674;1252;60013;-77
2024/03/20 12:10:42;;;;;;;18.30;12.60;;;;;;;;;;109643;1250;59769;-77
2024/03/20 12:13:10;;;;;;;21.20;12.40;;;;;;;;;;109532;1250;59704;-77
2024/03/20 12:15:37;;;;;;;22.50;12.00;;;;;;;;;;107329;1250;59991;-77
2024/03/20 12:18:03;;;;;;;22.90;11.90;;;;;;;;;;106729;1253;62030;-78
2024/03/20 12:20:30;;;;;;;18.10;12.20;;;;;;;;;;106579;1251;62074;-77
2024/03/20 12:22:56;;;;;;;18.10;10.80;;;;;;;;;;106645;1253;62089;-77
2024/03/20 12:25:23;;;;;;;25.00;14.30;;;;;;;;;;106588;1251;62208;-77
2024/03/20 12:27:49;;;;;;;19.30;13.00;;;;;;;;;;106719;1251;62159;-78
2024/03/20 12:30:15;;;;;;;21.90;13.90;;;;;;;;;;106876;1250;62058;-78
2024/03/20 12:32:42;;;;;;;20.30;12.40;;;;;;;;;;106715;1253;62142;-77
2024/03/20 12:35:09;;;;;;;18.70;12.60;;;;;;;;;;106670;1253;61123;-78
2024/03/20 12:37:36;;;;;;;18.00;11.90;;;;;;;;;;106654;1250;61917;-78
2024/03/20 12:40:05;;;;;;;17.80;10.80;;;;;;;;;;106567;1255;62051;-76
2024/03/20 12:42:32;;;;;;;18.70;11.70;;;;;;;;;;106641;1250;62029;-78
2024/03/20 12:44:59;;;;;;;20.80;12.10;;;;;;;;;;106629;1250;62077;-77
2024/03/20 12:47:25;;;;;;;20.60;12.70;;;;;;;;;;106726;1254;62030;-77
2024/03/20 12:49:55;;;;;;;21.90;12.00;;;;;;;;;;106579;1253;62105;-78
2024/03/20 12:52:21;;;;;;;16.70;11.00;;;;;;;;;;106604;1253;62309;-78
2024/03/20 12:54:48;;;;;;;25.50;12.40;;;;;;;;;;106622;1251;62042;-78
2024/03/20 12:57:14;;;;;;;22.20;12.80;;;;;;;;;;106676;1254;62078;-77
2024/03/20 12:59:42;;;;;;;21.60;12.50;;;;;;;;;;106577;1253;62125;-78
2024/03/20 13:02:12;;;;;;;21.40;13.10;;;;;;;;;;106623;1251;61927;-77
2024/03/20 13:04:38;;;;;;;24.40;13.50;;;;;;;;;;106721;1251;62071;-78
2024/03/20 13:07:04;;;;;;;23.20;14.50;;;;;;;;;;106894;1251;62029;-78
2024/03/20 13:09:30;;;;;;;22.10;13.70;;;;;;;;;;106708;1249;62069;-77
2024/03/20 13:11:57;;;;;;;23.00;15.10;;;;;;;;;;106964;1250;62591;-77
2024/03/20 13:14:23;;;;;;;22.20;14.40;;;;;;;;;;106878;1252;63144;-77
2024/03/20 13:16:49;;;;;;;25.80;15.20;;;;;;;;;;107104;1254;62022;-79
2024/03/20 13:19:15;;;;;;;27.90;14.80;;;;;;;;;;106862;1250;62150;-77
2024/03/20 13:21:47;;;;;;;25.90;15.60;;;;;;;;;;106782;1250;62253;-79
2024/03/20 13:24:14;;;;;;;24.30;15.90;;;;;;;;;;106559;1251;62136;-77
2024/03/20 13:26:41;;;;;;;25.50;15.70;;;;;;;;;;106616;1253;62161;-77
2024/03/20 13:29:07;;;;;;;24.80;15.10;;;;;;;;;;107255;1253;62075;-78
2024/03/20 13:31:34;;;;;;;25.40;16.20;;;;;;;;;;106736;1253;62376;-78
2024/03/20 13:34:02;;;;;;;29.70;16.80;;;;;;;;;;106684;1250;62147;-77
2024/03/20 13:36:30;;;;;;;26.50;15.30;;;;;;;;;;106774;1251;62092;-78
2024/03/20 13:38:57;;;;;;;30.80;15.40;;;;;;;;;;106845;1251;62113;-77
2024/03/20 13:41:34;;;;;;;25.90;16.50;;;;;;;;;;106761;1252;62229;-77
2024/03/20 13:44:05;;;;;;;27.70;16.70;;;;;;;;;;106579;1253;62038;-77
2024/03/20 13:46:32;;;;;;;30.80;17.20;;;;;;;;;;107349;1254;63249;-78
2024/03/20 13:49:02;;;;;;;33.10;19.60;;;;;;;;;;106871;1254;61927;-77
2024/03/20 13:51:29;;;;;;;39.10;19.30;;;;;;;;;;106611;1251;62281;-78
2024/03/20 13:53:55;;;;;;;31.90;16.60;;;;;;;;;;106502;1250;62063;-79
2024/03/20 13:56:22;;;;;;;27.70;18.10;;;;;;;;;;106464;1251;62157;-77
2024/03/20 13:58:49;;;;;;;28.70;18.20;;;;;;;;;;106491;1251;63908;-78
2024/03/20 14:01:19;;;;;;;29.10;17.00;;;;;;;;;;106543;1254;62074;-78
2024/03/20 14:03:47;;;;;;;27.80;17.00;;;;;;;;;;106413;1254;62146;-78